SBOSBO UVF / TLPL
Speedbird OnlineSpeedbird Online UVF / TLPL

Hewanorra International Airport
10:01 30.7°C

Location Hewandorra, Saint Lucia
Latitude: 13.7332
Longitude: -60.952599
Local Time 10:01 on 28 May 2024
UTC -4 hours (America/St_Lucia)
Currency £1 equals XCD 3.45
METAR TLPL 281300Z 09018KT 9999 BKN027 30/25 Q1016 NOSIG
TAF TAF COR TLPL 281100Z 2812/2912 09014KT 9999 SCT025 PROB40 TEMPO 2824/2906 SHRA
Weather As Of 28 May 2024 10:01
Description Few clouds
Wind 27 km/h from East (88°)
Cloud Cover 11%
Precipitation Rain: none, Snow: none
Sunrise 05:35
Sunset 18:27
NOTAM 3 active NOTAM
Rotations During the last 90 days there were
76 flights from LGW
36 flights from GND
24 flights from GEO
23 flights from TAB
80 flights to LGW
36 flights to GND
24 flights to TAB
23 flights to GEO
1 flights to BGI
1 flights to LHR
Lounges Iyanola Executive Lounge , Main Terminal
Web Airport Website | Wikipedia
Codes IATA: UVF
ICAO: TLPL
Altitude 4 Meter / 14 Feet
Distance 6,832 KM / 4,245 Miles
from London.
Runways
RunwayLength (m)Surface
102744Asphalt
282744Asphalt
Radio
TypeDescriptionFrequency
APPST LUCIA APP119.8
GNDGND121.6
TWRTWR118.3
Live ATC



Support Speedbird Online

© 2017-2024 Speedbird Online